KLM2505 TNCC-TNCM
Flight info
| Callsign | KLM2505 |
|---|---|
| Flight time | 1h 11m |
| Altitude | 37000 |
| Route | ACORA1K ACORA UM576 MILOK M576 DANDE DCT PJM |
| Aircraft | B763/H-SDE3FGHIM3RWXY/LB1 |
Departure
| Time | 2026-04-23 23:50 |
|---|---|
| Airport | Hato International Airport (TNCC) |
Arrival
| Time | 2026-04-24 01:01 |
|---|---|
| Airport | Princess Juliana International Airport (TNCM) |
| Time | Latitude | Longitude | Altitude | Speed | Heading |
|---|---|---|---|---|---|
| 2026-04-23 23:41 | 12.18551 | -68.95799 | 43 ft | 0 kts | 193° |
| 2026-04-23 23:43 | 12.18552 | -68.95799 | 43 ft | 1 kts | 193° |
| 2026-04-23 23:43 | 12.18566 | -68.95796 | 43 ft | 3 kts | 193° |
| 2026-04-23 23:43 | 12.18584 | -68.95791 | 43 ft | 3 kts | 193° |
| 2026-04-23 23:43 | 12.18604 | -68.95787 | 43 ft | 3 kts | 193° |
| 2026-04-23 23:44 | 12.18624 | -68.95782 | 43 ft | 3 kts | 193° |
| 2026-04-23 23:44 | 12.18644 | -68.95778 | 43 ft | 3 kts | 193° |
| 2026-04-23 23:44 | 12.18664 | -68.95773 | 43 ft | 3 kts | 193° |
| 2026-04-23 23:44 | 12.18671 | -68.95773 | 43 ft | 3 kts | 208° |
| 2026-04-23 23:45 | 12.18670 | -68.95795 | 43 ft | 6 kts | 294° |
| 2026-04-23 23:45 | 12.18691 | -68.95870 | 43 ft | 15 kts | 282° |
| 2026-04-23 23:45 | 12.18719 | -68.96007 | 43 ft | 24 kts | 281° |
| 2026-04-23 23:45 | 12.18759 | -68.96199 | 43 ft | 31 kts | 282° |
| 2026-04-23 23:46 | 12.18809 | -68.96441 | 43 ft | 38 kts | 282° |
| 2026-04-23 23:46 | 12.18868 | -68.96723 | 43 ft | 41 kts | 282° |
| 2026-04-23 23:46 | 12.18924 | -68.96988 | 43 ft | 37 kts | 282° |
| 2026-04-23 23:46 | 12.18974 | -68.97231 | 43 ft | 33 kts | 282° |
| 2026-04-23 23:47 | 12.19021 | -68.97454 | 43 ft | 31 kts | 282° |
| 2026-04-23 23:47 | 12.19056 | -68.97617 | 43 ft | 12 kts | 291° |
| 2026-04-23 23:47 | 12.19115 | -68.97633 | 43 ft | 9 kts | 13° |
| 2026-04-23 23:47 | 12.19117 | -68.97632 | 43 ft | 0 kts | 12° |
| 2026-04-23 23:48 | 12.19118 | -68.97632 | 43 ft | 0 kts | 12° |
| 2026-04-23 23:48 | 12.19142 | -68.97625 | 43 ft | 6 kts | 20° |
| 2026-04-23 23:48 | 12.19175 | -68.97603 | 43 ft | 7 kts | 45° |
| 2026-04-23 23:49 | 12.19206 | -68.97482 | 43 ft | 18 kts | 97° |
| 2026-04-23 23:49 | 12.19117 | -68.97042 | 43 ft | 110 kts | 102° |
| 2026-04-23 23:49 | 12.18896 | -68.96007 | 160 ft | 179 kts | 102° |
| 2026-04-23 23:50 | 12.18617 | -68.94691 | 645 ft | 200 kts | 102° |
| 2026-04-23 23:50 | 12.18316 | -68.93272 | 1032 ft | 206 kts | 102° |
| 2026-04-23 23:50 | 12.18009 | -68.91812 | 1743 ft | 220 kts | 101° |
| 2026-04-23 23:50 | 12.17671 | -68.90187 | 2341 ft | 247 kts | 101° |
| 2026-04-23 23:51 | 12.17545 | -68.88404 | 3125 ft | 262 kts | 83° |
| 2026-04-23 23:51 | 12.18204 | -68.86669 | 4152 ft | 265 kts | 54° |
| 2026-04-23 23:51 | 12.19569 | -68.85414 | 5189 ft | 266 kts | 27° |
| 2026-04-23 23:51 | 12.21307 | -68.84736 | 6200 ft | 271 kts | 12° |
| 2026-04-23 23:52 | 12.23188 | -68.84299 | 7124 ft | 281 kts | 7° |
| 2026-04-23 23:52 | 12.25123 | -68.83897 | 8225 ft | 285 kts | 7° |
| 2026-04-23 23:52 | 12.27052 | -68.83502 | 9328 ft | 288 kts | 7° |
| 2026-04-23 23:52 | 12.29032 | -68.83097 | 10375 ft | 294 kts | 7° |
| 2026-04-23 23:53 | 12.31108 | -68.82646 | 10971 ft | 317 kts | 9° |
| 2026-04-23 23:53 | 12.33341 | -68.82086 | 11458 ft | 342 kts | 11° |
| 2026-04-23 23:53 | 12.35686 | -68.81422 | 12171 ft | 356 kts | 12° |
| 2026-04-23 23:53 | 12.38092 | -68.80691 | 13079 ft | 364 kts | 13° |
| 2026-04-23 23:54 | 12.40533 | -68.79935 | 14060 ft | 369 kts | 13° |
| 2026-04-23 23:54 | 12.42997 | -68.79165 | 15014 ft | 373 kts | 13° |
| 2026-04-23 23:54 | 12.45493 | -68.78362 | 15924 ft | 378 kts | 14° |
| 2026-04-23 23:54 | 12.48018 | -68.77528 | 16799 ft | 383 kts | 14° |
| 2026-04-23 23:55 | 12.50546 | -68.76685 | 17633 ft | 389 kts | 14° |
| 2026-04-23 23:55 | 12.53132 | -68.75824 | 18462 ft | 393 kts | 14° |
| 2026-04-23 23:55 | 12.55757 | -68.74962 | 19266 ft | 398 kts | 14° |
| 2026-04-23 23:55 | 12.58430 | -68.74094 | 20059 ft | 403 kts | 14° |
| 2026-04-23 23:56 | 12.61124 | -68.73224 | 20827 ft | 408 kts | 14° |
| 2026-04-23 23:56 | 12.63852 | -68.72359 | 21573 ft | 412 kts | 14° |
| 2026-04-23 23:56 | 12.66534 | -68.71325 | 22280 ft | 421 kts | 23° |
| 2026-04-23 23:56 | 12.68967 | -68.69600 | 22979 ft | 430 kts | 38° |
| 2026-04-23 23:57 | 12.71103 | -68.67419 | 23660 ft | 437 kts | 45° |
| 2026-04-23 23:57 | 12.73106 | -68.65045 | 24320 ft | 442 kts | 48° |
| 2026-04-23 23:57 | 12.75050 | -68.62619 | 24957 ft | 447 kts | 49° |
| 2026-04-23 23:57 | 12.77026 | -68.60132 | 25589 ft | 451 kts | 49° |
| 2026-04-23 23:58 | 12.79013 | -68.57629 | 26195 ft | 455 kts | 49° |
| 2026-04-23 23:58 | 12.81030 | -68.55098 | 26786 ft | 459 kts | 49° |
| 2026-04-23 23:58 | 12.83053 | -68.52549 | 27354 ft | 463 kts | 49° |
| 2026-04-23 23:58 | 12.85093 | -68.49993 | 27898 ft | 466 kts | 49° |
| 2026-04-23 23:59 | 12.87159 | -68.47395 | 28431 ft | 470 kts | 49° |
| 2026-04-23 23:59 | 12.89236 | -68.44787 | 28940 ft | 474 kts | 49° |
| 2026-04-23 23:59 | 12.91321 | -68.42208 | 29433 ft | 477 kts | 48° |
| 2026-04-23 23:59 | 12.93473 | -68.39609 | 29925 ft | 479 kts | 47° |
| 2026-04-24 00:00 | 12.95642 | -68.36986 | 30388 ft | 482 kts | 47° |
| 2026-04-24 00:00 | 12.97818 | -68.34359 | 30847 ft | 484 kts | 47° |
| 2026-04-24 00:00 | 12.99998 | -68.31712 | 31403 ft | 484 kts | 48° |
| 2026-04-24 00:00 | 13.02157 | -68.29068 | 31976 ft | 482 kts | 48° |
| 2026-04-24 00:01 | 13.04302 | -68.26427 | 32526 ft | 481 kts | 48° |
| 2026-04-24 00:01 | 13.06434 | -68.23790 | 33049 ft | 479 kts | 48° |
| 2026-04-24 00:01 | 13.08562 | -68.21154 | 33544 ft | 478 kts | 48° |
| 2026-04-24 00:01 | 13.10651 | -68.18561 | 34011 ft | 477 kts | 48° |
| 2026-04-24 00:02 | 13.12769 | -68.15929 | 34463 ft | 476 kts | 48° |
| 2026-04-24 00:02 | 13.14882 | -68.13302 | 34896 ft | 475 kts | 48° |
| 2026-04-24 00:02 | 13.16986 | -68.10687 | 35311 ft | 474 kts | 48° |
| 2026-04-24 00:02 | 13.19098 | -68.08085 | 35708 ft | 474 kts | 48° |
| 2026-04-24 00:03 | 13.21191 | -68.05516 | 36087 ft | 473 kts | 48° |
| 2026-04-24 00:03 | 13.23295 | -68.02914 | 36440 ft | 473 kts | 48° |
| 2026-04-24 00:03 | 13.25391 | -68.00317 | 36755 ft | 473 kts | 48° |
| 2026-04-24 00:03 | 13.27508 | -67.97709 | 36927 ft | 477 kts | 48° |
| 2026-04-24 00:04 | 13.31756 | -67.92381 | 37004 ft | 479 kts | 49° |
| 2026-04-24 00:04 | 13.35923 | -67.87105 | 37004 ft | 473 kts | 49° |
| 2026-04-24 00:05 | 13.40080 | -67.81906 | 37003 ft | 473 kts | 49° |
| 2026-04-24 00:05 | 13.44246 | -67.76673 | 37003 ft | 473 kts | 49° |
| 2026-04-24 00:06 | 13.48437 | -67.71449 | 37003 ft | 473 kts | 48° |
| 2026-04-24 00:06 | 13.52658 | -67.66265 | 37003 ft | 480 kts | 48° |
| 2026-04-24 00:07 | 13.57008 | -67.60942 | 37002 ft | 492 kts | 48° |
| 2026-04-24 00:07 | 13.61444 | -67.55466 | 37002 ft | 501 kts | 49° |
| 2026-04-24 00:08 | 13.65838 | -67.49907 | 37001 ft | 505 kts | 49° |
| 2026-04-24 00:08 | 13.70592 | -67.44616 | 37001 ft | 503 kts | 43° |
| 2026-04-24 00:09 | 13.75609 | -67.39611 | 37001 ft | 502 kts | 41° |
| 2026-04-24 00:09 | 13.79795 | -67.35462 | 37001 ft | 502 kts | 42° |
| 2026-04-24 00:10 | 13.85589 | -67.29592 | 37000 ft | 502 kts | 43° |
| 2026-04-24 00:10 | 13.89712 | -67.25308 | 36999 ft | 503 kts | 43° |
| 2026-04-24 00:11 | 13.94591 | -67.20210 | 36998 ft | 502 kts | 43° |
| 2026-04-24 00:11 | 13.99484 | -67.15061 | 36998 ft | 503 kts | 44° |
| 2026-04-24 00:12 | 14.04383 | -67.09899 | 36997 ft | 503 kts | 43° |
| 2026-04-24 00:12 | 14.09282 | -67.04756 | 36997 ft | 502 kts | 43° |
| 2026-04-24 00:13 | 14.14215 | -66.99707 | 36997 ft | 502 kts | 43° |
| 2026-04-24 00:13 | 14.19157 | -66.94614 | 36996 ft | 502 kts | 43° |
| 2026-04-24 00:14 | 14.24090 | -66.89498 | 36995 ft | 502 kts | 43° |
| 2026-04-24 00:14 | 14.28988 | -66.84423 | 36994 ft | 502 kts | 43° |
| 2026-04-24 00:15 | 14.33913 | -66.79306 | 36993 ft | 502 kts | 43° |
| 2026-04-24 00:15 | 14.38857 | -66.74199 | 36992 ft | 502 kts | 43° |
| 2026-04-24 00:16 | 14.43784 | -66.69081 | 36991 ft | 502 kts | 44° |
| 2026-04-24 00:16 | 14.48702 | -66.64021 | 36990 ft | 501 kts | 41° |
| 2026-04-24 00:17 | 14.53902 | -66.59216 | 36989 ft | 501 kts | 39° |
| 2026-04-24 00:17 | 14.59136 | -66.54462 | 36988 ft | 501 kts | 39° |
| 2026-04-24 00:18 | 14.64362 | -66.49690 | 36987 ft | 501 kts | 39° |
| 2026-04-24 00:18 | 14.69536 | -66.44918 | 36987 ft | 501 kts | 40° |
| 2026-04-24 00:19 | 14.74671 | -66.40032 | 36987 ft | 501 kts | 40° |
| 2026-04-24 00:19 | 14.79807 | -66.35150 | 36987 ft | 501 kts | 40° |
| 2026-04-24 00:20 | 14.84933 | -66.30290 | 36984 ft | 501 kts | 40° |
| 2026-04-24 00:20 | 14.90112 | -66.25475 | 36984 ft | 501 kts | 39° |
| 2026-04-24 00:21 | 14.95314 | -66.20726 | 36984 ft | 501 kts | 39° |
| 2026-04-24 00:21 | 15.00510 | -66.15916 | 36983 ft | 501 kts | 40° |
| 2026-04-24 00:22 | 15.05654 | -66.11051 | 36983 ft | 501 kts | 40° |
| 2026-04-24 00:22 | 15.10747 | -66.06112 | 36981 ft | 501 kts | 41° |
| 2026-04-24 00:23 | 15.15813 | -66.01154 | 36981 ft | 501 kts | 41° |
| 2026-04-24 00:23 | 15.20884 | -65.96172 | 36980 ft | 501 kts | 41° |
| 2026-04-24 00:24 | 15.25922 | -65.91236 | 36980 ft | 501 kts | 41° |
| 2026-04-24 00:24 | 15.31044 | -65.86317 | 36979 ft | 501 kts | 41° |
| 2026-04-24 00:25 | 15.36131 | -65.81382 | 36980 ft | 501 kts | 41° |
| 2026-04-24 00:25 | 15.41177 | -65.76384 | 36980 ft | 502 kts | 42° |
| 2026-04-24 00:26 | 15.46188 | -65.71355 | 36979 ft | 501 kts | 41° |
| 2026-04-24 00:26 | 15.51204 | -65.66379 | 36979 ft | 501 kts | 41° |
| 2026-04-24 00:27 | 15.56243 | -65.61367 | 36978 ft | 501 kts | 41° |
| 2026-04-24 00:27 | 15.61279 | -65.56352 | 36978 ft | 501 kts | 41° |
| 2026-04-24 00:28 | 15.66322 | -65.51339 | 36978 ft | 501 kts | 42° |
| 2026-04-24 00:28 | 15.71352 | -65.46323 | 36977 ft | 501 kts | 41° |
| 2026-04-24 00:29 | 15.76381 | -65.41298 | 36977 ft | 501 kts | 41° |
| 2026-04-24 00:29 | 15.81375 | -65.36302 | 36977 ft | 501 kts | 41° |
| 2026-04-24 00:30 | 15.86416 | -65.31269 | 36977 ft | 502 kts | 42° |
| 2026-04-24 00:30 | 15.91471 | -65.26254 | 36977 ft | 501 kts | 41° |
| 2026-04-24 00:31 | 15.96526 | -65.21314 | 36976 ft | 501 kts | 41° |
| 2026-04-24 00:31 | 16.01611 | -65.16339 | 36977 ft | 501 kts | 41° |
| 2026-04-24 00:32 | 16.06685 | -65.11337 | 36977 ft | 502 kts | 41° |
| 2026-04-24 00:32 | 16.11655 | -65.06291 | 36976 ft | 502 kts | 43° |
| 2026-04-24 00:33 | 16.16654 | -65.01210 | 36976 ft | 502 kts | 42° |
| 2026-04-24 00:33 | 16.21694 | -64.96190 | 36976 ft | 501 kts | 41° |
| 2026-04-24 00:34 | 16.26783 | -64.91216 | 36975 ft | 502 kts | 41° |
| 2026-04-24 00:34 | 16.31820 | -64.86247 | 36975 ft | 501 kts | 41° |
| 2026-04-24 00:35 | 16.36872 | -64.81232 | 36974 ft | 501 kts | 42° |
| 2026-04-24 00:35 | 16.41877 | -64.76153 | 36972 ft | 501 kts | 42° |
| 2026-04-24 00:36 | 16.46893 | -64.71101 | 36978 ft | 501 kts | 42° |
| 2026-04-24 00:36 | 16.51936 | -64.66045 | 36546 ft | 503 kts | 41° |
| 2026-04-24 00:37 | 16.54407 | -64.63557 | 36022 ft | 497 kts | 42° |
| 2026-04-24 00:37 | 16.56882 | -64.61070 | 35471 ft | 489 kts | 41° |
| 2026-04-24 00:37 | 16.59323 | -64.58632 | 34919 ft | 482 kts | 41° |
| 2026-04-24 00:37 | 16.61730 | -64.56215 | 34366 ft | 476 kts | 41° |
| 2026-04-24 00:38 | 16.64093 | -64.53828 | 33814 ft | 470 kts | 42° |
| 2026-04-24 00:38 | 16.66422 | -64.51451 | 33261 ft | 465 kts | 42° |
| 2026-04-24 00:38 | 16.68719 | -64.49105 | 32710 ft | 460 kts | 42° |
| 2026-04-24 00:38 | 16.70964 | -64.46813 | 32166 ft | 456 kts | 42° |
| 2026-04-24 00:39 | 16.73226 | -64.44499 | 31612 ft | 452 kts | 42° |
| 2026-04-24 00:39 | 16.75486 | -64.42234 | 31060 ft | 447 kts | 41° |
| 2026-04-24 00:39 | 16.77745 | -64.40003 | 30507 ft | 444 kts | 41° |
| 2026-04-24 00:39 | 16.79975 | -64.37791 | 29955 ft | 440 kts | 41° |
| 2026-04-24 00:40 | 16.82149 | -64.35609 | 29410 ft | 437 kts | 41° |
| 2026-04-24 00:40 | 16.84330 | -64.33406 | 28858 ft | 434 kts | 41° |
| 2026-04-24 00:40 | 16.86490 | -64.31217 | 28306 ft | 431 kts | 41° |
| 2026-04-24 00:40 | 16.88643 | -64.29041 | 27753 ft | 428 kts | 41° |
| 2026-04-24 00:41 | 16.90768 | -64.26873 | 27201 ft | 425 kts | 42° |
| 2026-04-24 00:41 | 16.92875 | -64.24713 | 26648 ft | 422 kts | 42° |
| 2026-04-24 00:41 | 16.94973 | -64.22577 | 26096 ft | 419 kts | 41° |
| 2026-04-24 00:41 | 16.97056 | -64.20505 | 25550 ft | 416 kts | 41° |
| 2026-04-24 00:42 | 16.99158 | -64.18435 | 24997 ft | 414 kts | 40° |
| 2026-04-24 00:42 | 17.01241 | -64.16375 | 24445 ft | 411 kts | 41° |
| 2026-04-24 00:42 | 17.03306 | -64.14318 | 23894 ft | 409 kts | 41° |
| 2026-04-24 00:42 | 17.05353 | -64.12269 | 23342 ft | 407 kts | 41° |
| 2026-04-24 00:43 | 17.07391 | -64.10223 | 22789 ft | 404 kts | 41° |
| 2026-04-24 00:43 | 17.09416 | -64.08187 | 22236 ft | 402 kts | 41° |
| 2026-04-24 00:43 | 17.11404 | -64.06186 | 21690 ft | 400 kts | 41° |
| 2026-04-24 00:43 | 17.13403 | -64.04164 | 21138 ft | 398 kts | 41° |
| 2026-04-24 00:44 | 17.15375 | -64.02136 | 20585 ft | 396 kts | 42° |
| 2026-04-24 00:44 | 17.17331 | -64.00105 | 20032 ft | 394 kts | 42° |
| 2026-04-24 00:44 | 17.19279 | -63.98099 | 19480 ft | 392 kts | 41° |
| 2026-04-24 00:44 | 17.21225 | -63.96102 | 18990 ft | 389 kts | 41° |
| 2026-04-24 00:45 | 17.23135 | -63.94144 | 18652 ft | 381 kts | 41° |
| 2026-04-24 00:45 | 17.25011 | -63.92220 | 18276 ft | 375 kts | 41° |
| 2026-04-24 00:45 | 17.26871 | -63.90314 | 17794 ft | 373 kts | 41° |
| 2026-04-24 00:45 | 17.28717 | -63.88422 | 17296 ft | 371 kts | 41° |
| 2026-04-24 00:46 | 17.30564 | -63.86541 | 16795 ft | 369 kts | 41° |
| 2026-04-24 00:46 | 17.32418 | -63.84685 | 16293 ft | 367 kts | 41° |
| 2026-04-24 00:46 | 17.34243 | -63.82867 | 15797 ft | 366 kts | 40° |
| 2026-04-24 00:46 | 17.36085 | -63.81038 | 15295 ft | 364 kts | 40° |
| 2026-04-24 00:47 | 17.37925 | -63.79212 | 14792 ft | 363 kts | 40° |
| 2026-04-24 00:47 | 17.39758 | -63.77393 | 14288 ft | 361 kts | 41° |
| 2026-04-24 00:47 | 17.41577 | -63.75577 | 13785 ft | 360 kts | 41° |
| 2026-04-24 00:47 | 17.43379 | -63.73764 | 13325 ft | 357 kts | 41° |
| 2026-04-24 00:48 | 17.45138 | -63.71945 | 12933 ft | 353 kts | 42° |
| 2026-04-24 00:48 | 17.46839 | -63.70161 | 12560 ft | 348 kts | 42° |
| 2026-04-24 00:48 | 17.48541 | -63.68369 | 12182 ft | 344 kts | 42° |
| 2026-04-24 00:48 | 17.50237 | -63.66624 | 11817 ft | 339 kts | 40° |
| 2026-04-24 00:49 | 17.52035 | -63.65067 | 11537 ft | 330 kts | 34° |
| 2026-04-24 00:49 | 17.53888 | -63.63693 | 11282 ft | 322 kts | 31° |
| 2026-04-24 00:49 | 17.55713 | -63.62413 | 11033 ft | 315 kts | 30° |
| 2026-04-24 00:49 | 17.57521 | -63.61155 | 10782 ft | 309 kts | 30° |
| 2026-04-24 00:50 | 17.59192 | -63.59991 | 10545 ft | 304 kts | 30° |
| 2026-04-24 00:50 | 17.60937 | -63.58776 | 10293 ft | 299 kts | 30° |
| 2026-04-24 00:50 | 17.62655 | -63.57578 | 10011 ft | 295 kts | 30° |
| 2026-04-24 00:50 | 17.64361 | -63.56390 | 9713 ft | 292 kts | 30° |
| 2026-04-24 00:51 | 17.66047 | -63.55216 | 9413 ft | 290 kts | 30° |
| 2026-04-24 00:51 | 17.67727 | -63.54043 | 9110 ft | 288 kts | 30° |
| 2026-04-24 00:51 | 17.69381 | -63.52878 | 8808 ft | 286 kts | 31° |
| 2026-04-24 00:51 | 17.70993 | -63.51708 | 8510 ft | 284 kts | 31° |
| 2026-04-24 00:52 | 17.72609 | -63.50521 | 8208 ft | 282 kts | 31° |
| 2026-04-24 00:52 | 17.74212 | -63.49340 | 7906 ft | 281 kts | 31° |
| 2026-04-24 00:52 | 17.75809 | -63.48160 | 7604 ft | 279 kts | 32° |
| 2026-04-24 00:52 | 17.77392 | -63.46988 | 7302 ft | 278 kts | 32° |
| 2026-04-24 00:53 | 17.78969 | -63.45819 | 7000 ft | 277 kts | 32° |
| 2026-04-24 00:53 | 17.80536 | -63.44657 | 6699 ft | 275 kts | 32° |
| 2026-04-24 00:53 | 17.82102 | -63.43497 | 6396 ft | 274 kts | 32° |
| 2026-04-24 00:53 | 17.83664 | -63.42342 | 6093 ft | 273 kts | 32° |
| 2026-04-24 00:54 | 17.85212 | -63.41197 | 5808 ft | 271 kts | 32° |
| 2026-04-24 00:54 | 17.86747 | -63.40061 | 5551 ft | 268 kts | 32° |
| 2026-04-24 00:54 | 17.88239 | -63.38955 | 5303 ft | 265 kts | 32° |
| 2026-04-24 00:54 | 17.89744 | -63.37859 | 5058 ft | 260 kts | 31° |
| 2026-04-24 00:55 | 17.91233 | -63.36799 | 4793 ft | 254 kts | 31° |
| 2026-04-24 00:55 | 17.92682 | -63.35767 | 4541 ft | 249 kts | 31° |
| 2026-04-24 00:55 | 17.94103 | -63.34755 | 4288 ft | 244 kts | 31° |
| 2026-04-24 00:55 | 17.95478 | -63.33775 | 4039 ft | 239 kts | 31° |
| 2026-04-24 00:56 | 17.96840 | -63.32806 | 3787 ft | 234 kts | 31° |
| 2026-04-24 00:56 | 17.98180 | -63.31852 | 3535 ft | 230 kts | 31° |
| 2026-04-24 00:56 | 17.99052 | -63.31231 | 3375 ft | 226 kts | 31° |
| 2026-04-24 00:56 | 18.00331 | -63.30310 | 3115 ft | 220 kts | 33° |
| 2026-04-24 00:57 | 18.01537 | -63.28629 | 2775 ft | 216 kts | 64° |
| 2026-04-24 00:57 | 18.01805 | -63.27632 | 2610 ft | 212 kts | 75° |
| 2026-04-24 00:57 | 18.02192 | -63.24681 | 2210 ft | 190 kts | 82° |
| 2026-04-24 00:58 | 18.02332 | -63.23362 | 2022 ft | 175 kts | 82° |
| 2026-04-24 00:58 | 18.02478 | -63.22126 | 1814 ft | 166 kts | 81° |
| 2026-04-24 00:58 | 18.02628 | -63.20971 | 1587 ft | 158 kts | 80° |
| 2026-04-24 00:58 | 18.02778 | -63.19828 | 1394 ft | 156 kts | 81° |
| 2026-04-24 00:59 | 18.02926 | -63.18707 | 1236 ft | 153 kts | 81° |
| 2026-04-24 00:59 | 18.03077 | -63.17609 | 1089 ft | 151 kts | 80° |
| 2026-04-24 00:59 | 18.03240 | -63.16527 | 919 ft | 150 kts | 80° |
| 2026-04-24 00:59 | 18.03421 | -63.15441 | 722 ft | 152 kts | 79° |
| 2026-04-24 01:00 | 18.03610 | -63.14352 | 524 ft | 150 kts | 79° |
| 2026-04-24 01:00 | 18.03776 | -63.13280 | 334 ft | 147 kts | 81° |
| 2026-04-24 01:00 | 18.03910 | -63.12243 | 127 ft | 141 kts | 82° |
| 2026-04-24 01:00 | 18.04036 | -63.11281 | 15 ft | 120 kts | 82° |
| 2026-04-24 01:01 | 18.04134 | -63.10583 | 14 ft | 60 kts | 81° |
| 2026-04-24 01:01 | 18.04185 | -63.10215 | 14 ft | 46 kts | 81° |
| 2026-04-24 01:01 | 18.04224 | -63.10019 | 14 ft | 17 kts | 75° |
| 2026-04-24 01:01 | 18.04216 | -63.09942 | 14 ft | 6 kts | 175° |
| 2026-04-24 01:02 | 18.04202 | -63.09968 | 14 ft | 6 kts | 288° |
| 2026-04-24 01:02 | 18.04212 | -63.10038 | 14 ft | 13 kts | 268° |
| 2026-04-24 01:02 | 18.04195 | -63.10157 | 14 ft | 20 kts | 261° |
| 2026-04-24 01:02 | 18.04171 | -63.10323 | 14 ft | 28 kts | 261° |
| 2026-04-24 01:03 | 18.04141 | -63.10532 | 14 ft | 28 kts | 262° |
| 2026-04-24 01:03 | 18.04113 | -63.10728 | 14 ft | 26 kts | 262° |
| 2026-04-24 01:03 | 18.04087 | -63.10915 | 14 ft | 25 kts | 261° |
| 2026-04-24 01:03 | 18.04061 | -63.11092 | 14 ft | 24 kts | 261° |
| 2026-04-24 01:04 | 18.04040 | -63.11242 | 14 ft | 15 kts | 268° |
| 2026-04-24 01:04 | 18.04098 | -63.11303 | 14 ft | 12 kts | 352° |
| 2026-04-24 01:04 | 18.04182 | -63.11315 | 14 ft | 12 kts | 352° |
| 2026-04-24 01:04 | 18.04251 | -63.11347 | 14 ft | 10 kts | 324° |
| 2026-04-24 01:05 | 18.04309 | -63.11362 | 14 ft | 4 kts | 352° |
| 2026-04-24 01:05 | 18.04325 | -63.11365 | 14 ft | 0 kts | 352° |
| 2026-04-24 01:05 | 18.04326 | -63.11365 | 14 ft | 0 kts | 352° |